sensor_id;sensor_type;location;lat;lon;timestamp;P1;durP1;ratioP1;P2;durP2;ratioP2
19131;SDS011;9698;51.976;7.570;2023-05-14T00:00:49;7.83;;;6.60;;
19131;SDS011;9698;51.976;7.570;2023-05-14T00:03:16;9.30;;;6.43;;
19131;SDS011;9698;51.976;7.570;2023-05-14T00:05:44;10.53;;;7.00;;
19131;SDS011;9698;51.976;7.570;2023-05-14T00:08:12;10.57;;;6.37;;
19131;SDS011;9698;51.976;7.570;2023-05-14T00:10:40;8.47;;;7.20;;
19131;SDS011;9698;51.976;7.570;2023-05-14T00:13:07;10.00;;;6.60;;
19131;SDS011;9698;51.976;7.570;2023-05-14T00:15:35;9.57;;;7.63;;
19131;SDS011;9698;51.976;7.570;2023-05-14T00:18:04;10.00;;;7.00;;
19131;SDS011;9698;51.976;7.570;2023-05-14T00:20:32;8.17;;;7.33;;
19131;SDS011;9698;51.976;7.570;2023-05-14T00:22:59;9.53;;;7.63;;
19131;SDS011;9698;51.976;7.570;2023-05-14T00:25:28;8.97;;;7.20;;
19131;SDS011;9698;51.976;7.570;2023-05-14T00:27:56;8.27;;;6.83;;
19131;SDS011;9698;51.976;7.570;2023-05-14T00:30:24;11.63;;;7.70;;
19131;SDS011;9698;51.976;7.570;2023-05-14T00:32:52;10.00;;;8.30;;
19131;SDS011;9698;51.976;7.570;2023-05-14T00:35:20;9.27;;;7.90;;
19131;SDS011;9698;51.976;7.570;2023-05-14T00:37:48;11.40;;;8.37;;
19131;SDS011;9698;51.976;7.570;2023-05-14T00:40:16;10.37;;;8.20;;
19131;SDS011;9698;51.976;7.570;2023-05-14T00:42:45;10.80;;;8.17;;
19131;SDS011;9698;51.976;7.570;2023-05-14T00:45:12;8.23;;;7.53;;
19131;SDS011;9698;51.976;7.570;2023-05-14T00:47:40;10.57;;;9.07;;
19131;SDS011;9698;51.976;7.570;2023-05-14T00:50:09;8.93;;;8.03;;
19131;SDS011;9698;51.976;7.570;2023-05-14T00:52:37;11.00;;;8.90;;
19131;SDS011;9698;51.976;7.570;2023-05-14T00:55:06;9.17;;;8.17;;
19131;SDS011;9698;51.976;7.570;2023-05-14T00:57:53;9.83;;;7.70;;
19131;SDS011;9698;51.976;7.570;2023-05-14T01:00:23;9.37;;;7.73;;
19131;SDS011;9698;51.976;7.570;2023-05-14T01:02:51;9.67;;;8.03;;
19131;SDS011;9698;51.976;7.570;2023-05-14T01:05:19;8.73;;;7.83;;
19131;SDS011;9698;51.976;7.570;2023-05-14T01:07:53;9.87;;;7.50;;
19131;SDS011;9698;51.976;7.570;2023-05-14T01:10:27;9.37;;;8.33;;
19131;SDS011;9698;51.976;7.570;2023-05-14T01:13:06;9.17;;;7.90;;
19131;SDS011;9698;51.976;7.570;2023-05-14T01:15:39;12.77;;;9.47;;
19131;SDS011;9698;51.976;7.570;2023-05-14T01:18:10;8.80;;;7.73;;
19131;SDS011;9698;51.976;7.570;2023-05-14T01:20:43;10.27;;;8.87;;
19131;SDS011;9698;51.976;7.570;2023-05-14T01:23:11;9.40;;;8.40;;
19131;SDS011;9698;51.976;7.570;2023-05-14T01:25:39;10.73;;;9.30;;
19131;SDS011;9698;51.976;7.570;2023-05-14T01:28:10;9.07;;;8.00;;
19131;SDS011;9698;51.976;7.570;2023-05-14T01:30:45;11.43;;;9.20;;
19131;SDS011;9698;51.976;7.570;2023-05-14T01:33:23;9.20;;;7.90;;
19131;SDS011;9698;51.976;7.570;2023-05-14T01:35:53;9.87;;;7.77;;
19131;SDS011;9698;51.976;7.570;2023-05-14T01:38:21;9.47;;;8.00;;
19131;SDS011;9698;51.976;7.570;2023-05-14T01:40:49;9.37;;;8.20;;
19131;SDS011;9698;51.976;7.570;2023-05-14T01:43:18;9.47;;;8.50;;
19131;SDS011;9698;51.976;7.570;2023-05-14T01:45:46;10.23;;;8.97;;
19131;SDS011;9698;51.976;7.570;2023-05-14T01:48:15;9.60;;;8.60;;
19131;SDS011;9698;51.976;7.570;2023-05-14T01:50:42;10.10;;;9.10;;
19131;SDS011;9698;51.976;7.570;2023-05-14T01:53:10;8.77;;;7.93;;
19131;SDS011;9698;51.976;7.570;2023-05-14T01:55:38;10.80;;;9.57;;
19131;SDS011;9698;51.976;7.570;2023-05-14T01:58:06;13.07;;;9.47;;
19131;SDS011;9698;51.976;7.570;2023-05-14T02:00:34;12.47;;;9.00;;
19131;SDS011;9698;51.976;7.570;2023-05-14T02:03:01;9.20;;;8.07;;
19131;SDS011;9698;51.976;7.570;2023-05-14T02:05:29;10.60;;;8.77;;
19131;SDS011;9698;51.976;7.570;2023-05-14T02:07:57;10.97;;;7.40;;
19131;SDS011;9698;51.976;7.570;2023-05-14T02:10:25;11.23;;;8.50;;
19131;SDS011;9698;51.976;7.570;2023-05-14T02:12:52;8.70;;;7.80;;
19131;SDS011;9698;51.976;7.570;2023-05-14T02:15:21;8.93;;;7.77;;
19131;SDS011;9698;51.976;7.570;2023-05-14T02:17:49;8.70;;;7.80;;
19131;SDS011;9698;51.976;7.570;2023-05-14T02:20:17;8.70;;;7.87;;
19131;SDS011;9698;51.976;7.570;2023-05-14T02:22:45;9.70;;;8.63;;
19131;SDS011;9698;51.976;7.570;2023-05-14T02:25:13;8.37;;;7.63;;
19131;SDS011;9698;51.976;7.570;2023-05-14T02:27:41;12.43;;;9.07;;
19131;SDS011;9698;51.976;7.570;2023-05-14T02:30:11;9.80;;;8.87;;
19131;SDS011;9698;51.976;7.570;2023-05-14T02:32:39;9.63;;;8.60;;
19131;SDS011;9698;51.976;7.570;2023-05-14T02:35:08;8.20;;;7.40;;
19131;SDS011;9698;51.976;7.570;2023-05-14T02:37:36;9.77;;;8.33;;
19131;SDS011;9698;51.976;7.570;2023-05-14T02:40:05;9.13;;;7.73;;
19131;SDS011;9698;51.976;7.570;2023-05-14T02:42:34;8.63;;;7.73;;
19131;SDS011;9698;51.976;7.570;2023-05-14T02:45:02;8.50;;;7.70;;
19131;SDS011;9698;51.976;7.570;2023-05-14T02:47:31;10.70;;;8.93;;
19131;SDS011;9698;51.976;7.570;2023-05-14T02:50:04;9.90;;;8.43;;
19131;SDS011;9698;51.976;7.570;2023-05-14T02:52:34;9.33;;;8.37;;
19131;SDS011;9698;51.976;7.570;2023-05-14T02:55:02;9.00;;;8.10;;
19131;SDS011;9698;51.976;7.570;2023-05-14T02:57:31;10.43;;;9.07;;
19131;SDS011;9698;51.976;7.570;2023-05-14T02:59:59;8.90;;;8.00;;
19131;SDS011;9698;51.976;7.570;2023-05-14T03:02:27;8.93;;;8.13;;
19131;SDS011;9698;51.976;7.570;2023-05-14T03:04:56;10.23;;;7.93;;
19131;SDS011;9698;51.976;7.570;2023-05-14T03:07:24;8.60;;;7.80;;
19131;SDS011;9698;51.976;7.570;2023-05-14T03:09:52;8.90;;;8.10;;
19131;SDS011;9698;51.976;7.570;2023-05-14T03:12:20;10.50;;;9.30;;
19131;SDS011;9698;51.976;7.570;2023-05-14T03:14:47;12.90;;;9.60;;
19131;SDS011;9698;51.976;7.570;2023-05-14T03:17:15;10.03;;;8.80;;
19131;SDS011;9698;51.976;7.570;2023-05-14T03:19:43;9.80;;;8.60;;
19131;SDS011;9698;51.976;7.570;2023-05-14T03:22:11;10.43;;;8.73;;
19131;SDS011;9698;51.976;7.570;2023-05-14T03:24:39;10.77;;;9.67;;
19131;SDS011;9698;51.976;7.570;2023-05-14T03:27:06;9.53;;;8.50;;
19131;SDS011;9698;51.976;7.570;2023-05-14T03:29:34;10.30;;;9.30;;
19131;SDS011;9698;51.976;7.570;2023-05-14T03:32:02;9.77;;;8.87;;
19131;SDS011;9698;51.976;7.570;2023-05-14T03:34:31;11.03;;;9.93;;
19131;SDS011;9698;51.976;7.570;2023-05-14T03:36:59;9.93;;;8.67;;
19131;SDS011;9698;51.976;7.570;2023-05-14T03:39:27;9.80;;;8.03;;
19131;SDS011;9698;51.976;7.570;2023-05-14T03:41:55;9.83;;;8.70;;
19131;SDS011;9698;51.976;7.570;2023-05-14T03:44:24;9.07;;;8.27;;
19131;SDS011;9698;51.976;7.570;2023-05-14T03:46:52;9.60;;;8.70;;
19131;SDS011;9698;51.976;7.570;2023-05-14T03:49:19;10.13;;;8.73;;
19131;SDS011;9698;51.976;7.570;2023-05-14T03:51:47;11.33;;;9.33;;
19131;SDS011;9698;51.976;7.570;2023-05-14T03:54:15;10.60;;;8.60;;
19131;SDS011;9698;51.976;7.570;2023-05-14T03:56:42;10.17;;;9.07;;
19131;SDS011;9698;51.976;7.570;2023-05-14T03:59:11;11.10;;;8.87;;
19131;SDS011;9698;51.976;7.570;2023-05-14T04:01:39;11.47;;;9.77;;
19131;SDS011;9698;51.976;7.570;2023-05-14T04:04:06;9.87;;;8.77;;
19131;SDS011;9698;51.976;7.570;2023-05-14T04:06:34;9.37;;;8.47;;
19131;SDS011;9698;51.976;7.570;2023-05-14T04:09:02;10.17;;;8.30;;
19131;SDS011;9698;51.976;7.570;2023-05-14T04:11:30;9.37;;;8.47;;
19131;SDS011;9698;51.976;7.570;2023-05-14T04:13:58;8.87;;;8.07;;
19131;SDS011;9698;51.976;7.570;2023-05-14T04:16:26;9.07;;;8.17;;
19131;SDS011;9698;51.976;7.570;2023-05-14T04:18:54;10.20;;;8.20;;
19131;SDS011;9698;51.976;7.570;2023-05-14T04:21:22;9.47;;;7.77;;
19131;SDS011;9698;51.976;7.570;2023-05-14T04:23:49;9.23;;;7.93;;
19131;SDS011;9698;51.976;7.570;2023-05-14T04:26:17;9.60;;;8.43;;
19131;SDS011;9698;51.976;7.570;2023-05-14T04:28:45;9.93;;;8.77;;
19131;SDS011;9698;51.976;7.570;2023-05-14T04:31:12;8.77;;;7.57;;
19131;SDS011;9698;51.976;7.570;2023-05-14T04:33:40;9.53;;;8.63;;
19131;SDS011;9698;51.976;7.570;2023-05-14T04:36:08;11.90;;;8.37;;
19131;SDS011;9698;51.976;7.570;2023-05-14T04:38:36;9.50;;;8.60;;
19131;SDS011;9698;51.976;7.570;2023-05-14T04:41:04;9.80;;;8.80;;
19131;SDS011;9698;51.976;7.570;2023-05-14T04:43:32;9.70;;;8.70;;
19131;SDS011;9698;51.976;7.570;2023-05-14T04:45:59;11.70;;;8.80;;
19131;SDS011;9698;51.976;7.570;2023-05-14T04:48:27;9.23;;;8.33;;
19131;SDS011;9698;51.976;7.570;2023-05-14T04:50:55;12.50;;;8.50;;
19131;SDS011;9698;51.976;7.570;2023-05-14T04:53:23;10.27;;;8.60;;
19131;SDS011;9698;51.976;7.570;2023-05-14T04:55:51;8.43;;;7.63;;
19131;SDS011;9698;51.976;7.570;2023-05-14T04:58:19;9.97;;;8.37;;
19131;SDS011;9698;51.976;7.570;2023-05-14T05:00:48;10.67;;;8.83;;
19131;SDS011;9698;51.976;7.570;2023-05-14T05:03:36;9.17;;;8.37;;
19131;SDS011;9698;51.976;7.570;2023-05-14T05:06:05;9.67;;;8.73;;
19131;SDS011;9698;51.976;7.570;2023-05-14T05:08:33;9.67;;;8.70;;
19131;SDS011;9698;51.976;7.570;2023-05-14T05:11:02;9.23;;;8.33;;
19131;SDS011;9698;51.976;7.570;2023-05-14T05:13:30;9.77;;;8.67;;
19131;SDS011;9698;51.976;7.570;2023-05-14T05:15:58;9.50;;;8.53;;
19131;SDS011;9698;51.976;7.570;2023-05-14T05:18:26;10.47;;;8.57;;
19131;SDS011;9698;51.976;7.570;2023-05-14T05:20:54;9.80;;;8.77;;
19131;SDS011;9698;51.976;7.570;2023-05-14T05:23:22;9.73;;;8.83;;
19131;SDS011;9698;51.976;7.570;2023-05-14T05:25:49;10.23;;;8.70;;
19131;SDS011;9698;51.976;7.570;2023-05-14T05:28:17;11.07;;;8.60;;
19131;SDS011;9698;51.976;7.570;2023-05-14T05:30:45;10.43;;;9.37;;
19131;SDS011;9698;51.976;7.570;2023-05-14T05:33:13;9.43;;;8.40;;
19131;SDS011;9698;51.976;7.570;2023-05-14T05:35:40;10.57;;;9.57;;
19131;SDS011;9698;51.976;7.570;2023-05-14T05:38:09;10.17;;;8.70;;
19131;SDS011;9698;51.976;7.570;2023-05-14T05:40:37;9.70;;;8.80;;
19131;SDS011;9698;51.976;7.570;2023-05-14T05:43:05;9.53;;;8.63;;
19131;SDS011;9698;51.976;7.570;2023-05-14T05:45:32;10.10;;;8.93;;
19131;SDS011;9698;51.976;7.570;2023-05-14T05:48:00;8.93;;;8.13;;
19131;SDS011;9698;51.976;7.570;2023-05-14T05:50:29;13.13;;;11.23;;
19131;SDS011;9698;51.976;7.570;2023-05-14T05:52:57;12.67;;;10.17;;
19131;SDS011;9698;51.976;7.570;2023-05-14T05:55:25;10.20;;;9.20;;
19131;SDS011;9698;51.976;7.570;2023-05-14T05:57:53;9.80;;;8.90;;
19131;SDS011;9698;51.976;7.570;2023-05-14T06:00:21;8.83;;;7.57;;
19131;SDS011;9698;51.976;7.570;2023-05-14T06:02:49;10.13;;;8.73;;
19131;SDS011;9698;51.976;7.570;2023-05-14T06:05:17;9.90;;;8.30;;
19131;SDS011;9698;51.976;7.570;2023-05-14T06:07:45;9.63;;;8.03;;
19131;SDS011;9698;51.976;7.570;2023-05-14T06:10:13;10.40;;;7.90;;
19131;SDS011;9698;51.976;7.570;2023-05-14T06:12:40;9.43;;;8.50;;
19131;SDS011;9698;51.976;7.570;2023-05-14T06:15:09;9.43;;;7.43;;
19131;SDS011;9698;51.976;7.570;2023-05-14T06:17:38;10.00;;;8.20;;
19131;SDS011;9698;51.976;7.570;2023-05-14T06:20:07;9.40;;;7.90;;
19131;SDS011;9698;51.976;7.570;2023-05-14T06:22:36;8.60;;;6.80;;
19131;SDS011;9698;51.976;7.570;2023-05-14T06:25:05;7.10;;;6.43;;
19131;SDS011;9698;51.976;7.570;2023-05-14T06:27:34;6.83;;;6.23;;
19131;SDS011;9698;51.976;7.570;2023-05-14T06:30:02;6.90;;;6.13;;
19131;SDS011;9698;51.976;7.570;2023-05-14T06:32:32;6.00;;;5.40;;
19131;SDS011;9698;51.976;7.570;2023-05-14T06:34:59;5.60;;;5.10;;
19131;SDS011;9698;51.976;7.570;2023-05-14T06:37:27;5.87;;;5.37;;
19131;SDS011;9698;51.976;7.570;2023-05-14T06:39:55;5.73;;;5.23;;
19131;SDS011;9698;51.976;7.570;2023-05-14T06:42:23;7.50;;;5.60;;
19131;SDS011;9698;51.976;7.570;2023-05-14T06:44:51;6.33;;;5.83;;
19131;SDS011;9698;51.976;7.570;2023-05-14T06:47:20;5.93;;;5.37;;
19131;SDS011;9698;51.976;7.570;2023-05-14T06:49:48;6.70;;;6.00;;
19131;SDS011;9698;51.976;7.570;2023-05-14T06:52:15;6.10;;;5.50;;
19131;SDS011;9698;51.976;7.570;2023-05-14T06:54:44;6.30;;;5.70;;
19131;SDS011;9698;51.976;7.570;2023-05-14T06:57:12;6.23;;;5.43;;
19131;SDS011;9698;51.976;7.570;2023-05-14T06:59:39;7.80;;;6.47;;
19131;SDS011;9698;51.976;7.570;2023-05-14T07:02:07;6.30;;;5.10;;
19131;SDS011;9698;51.976;7.570;2023-05-14T07:04:35;6.60;;;5.53;;
19131;SDS011;9698;51.976;7.570;2023-05-14T07:07:03;5.97;;;5.37;;
19131;SDS011;9698;51.976;7.570;2023-05-14T07:09:31;6.33;;;5.53;;
19131;SDS011;9698;51.976;7.570;2023-05-14T07:11:59;5.80;;;5.10;;
19131;SDS011;9698;51.976;7.570;2023-05-14T07:14:27;5.70;;;5.17;;
19131;SDS011;9698;51.976;7.570;2023-05-14T07:16:55;5.47;;;4.97;;
19131;SDS011;9698;51.976;7.570;2023-05-14T07:19:23;6.30;;;5.13;;
19131;SDS011;9698;51.976;7.570;2023-05-14T07:21:53;8.27;;;5.20;;
19131;SDS011;9698;51.976;7.570;2023-05-14T07:24:21;4.67;;;4.27;;
19131;SDS011;9698;51.976;7.570;2023-05-14T07:26:49;5.63;;;4.80;;
19131;SDS011;9698;51.976;7.570;2023-05-14T07:29:17;4.40;;;4.00;;
19131;SDS011;9698;51.976;7.570;2023-05-14T07:31:45;5.93;;;5.40;;
19131;SDS011;9698;51.976;7.570;2023-05-14T07:34:13;5.33;;;4.83;;
19131;SDS011;9698;51.976;7.570;2023-05-14T07:36:41;5.57;;;5.10;;
19131;SDS011;9698;51.976;7.570;2023-05-14T07:39:08;6.33;;;5.10;;
19131;SDS011;9698;51.976;7.570;2023-05-14T07:41:36;5.97;;;5.37;;
19131;SDS011;9698;51.976;7.570;2023-05-14T07:44:04;4.90;;;4.50;;
19131;SDS011;9698;51.976;7.570;2023-05-14T07:46:32;5.67;;;4.77;;
19131;SDS011;9698;51.976;7.570;2023-05-14T07:49:00;5.73;;;4.30;;
19131;SDS011;9698;51.976;7.570;2023-05-14T07:51:27;5.00;;;4.03;;
19131;SDS011;9698;51.976;7.570;2023-05-14T07:53:55;5.30;;;4.23;;
19131;SDS011;9698;51.976;7.570;2023-05-14T07:56:23;4.87;;;4.17;;
19131;SDS011;9698;51.976;7.570;2023-05-14T07:58:51;5.43;;;4.50;;
19131;SDS011;9698;51.976;7.570;2023-05-14T08:01:18;4.87;;;4.37;;
19131;SDS011;9698;51.976;7.570;2023-05-14T08:03:46;5.00;;;4.20;;
19131;SDS011;9698;51.976;7.570;2023-05-14T08:06:14;4.43;;;3.63;;
19131;SDS011;9698;51.976;7.570;2023-05-14T08:08:42;4.00;;;3.70;;
19131;SDS011;9698;51.976;7.570;2023-05-14T08:11:10;4.30;;;3.60;;
19131;SDS011;9698;51.976;7.570;2023-05-14T08:13:38;4.73;;;4.30;;
19131;SDS011;9698;51.976;7.570;2023-05-14T08:16:06;4.60;;;4.20;;
19131;SDS011;9698;51.976;7.570;2023-05-14T08:18:34;4.00;;;3.70;;
19131;SDS011;9698;51.976;7.570;2023-05-14T08:21:02;3.93;;;3.63;;
19131;SDS011;9698;51.976;7.570;2023-05-14T08:23:31;5.10;;;3.63;;
19131;SDS011;9698;51.976;7.570;2023-05-14T08:25:59;6.00;;;5.50;;
19131;SDS011;9698;51.976;7.570;2023-05-14T08:28:26;4.20;;;3.80;;
19131;SDS011;9698;51.976;7.570;2023-05-14T08:30:54;3.97;;;3.67;;
19131;SDS011;9698;51.976;7.570;2023-05-14T08:33:22;4.70;;;3.73;;
19131;SDS011;9698;51.976;7.570;2023-05-14T08:35:51;4.47;;;3.87;;
19131;SDS011;9698;51.976;7.570;2023-05-14T08:38:19;4.03;;;3.63;;
19131;SDS011;9698;51.976;7.570;2023-05-14T08:40:47;4.30;;;3.90;;
19131;SDS011;9698;51.976;7.570;2023-05-14T08:43:19;4.30;;;3.90;;
19131;SDS011;9698;51.976;7.570;2023-05-14T08:45:52;4.03;;;3.73;;
19131;SDS011;9698;51.976;7.570;2023-05-14T08:51:11;4.03;;;3.37;;
19131;SDS011;9698;51.976;7.570;2023-05-14T08:53:39;5.13;;;3.63;;
19131;SDS011;9698;51.976;7.570;2023-05-14T08:56:07;3.50;;;3.20;;
19131;SDS011;9698;51.976;7.570;2023-05-14T08:58:36;4.10;;;3.17;;
19131;SDS011;9698;51.976;7.570;2023-05-14T09:01:03;4.37;;;2.70;;
19131;SDS011;9698;51.976;7.570;2023-05-14T09:03:31;3.43;;;3.13;;
19131;SDS011;9698;51.976;7.570;2023-05-14T09:06:00;2.90;;;2.70;;
19131;SDS011;9698;51.976;7.570;2023-05-14T09:08:29;2.83;;;2.63;;
19131;SDS011;9698;51.976;7.570;2023-05-14T09:10:57;3.00;;;2.80;;
19131;SDS011;9698;51.976;7.570;2023-05-14T09:13:25;3.50;;;3.20;;
19131;SDS011;9698;51.976;7.570;2023-05-14T09:15:54;2.97;;;2.77;;
19131;SDS011;9698;51.976;7.570;2023-05-14T09:18:23;3.70;;;3.40;;
19131;SDS011;9698;51.976;7.570;2023-05-14T09:20:51;3.57;;;3.27;;
19131;SDS011;9698;51.976;7.570;2023-05-14T09:23:19;3.07;;;2.87;;
19131;SDS011;9698;51.976;7.570;2023-05-14T09:25:47;4.43;;;3.30;;
19131;SDS011;9698;51.976;7.570;2023-05-14T09:28:16;2.97;;;2.67;;
19131;SDS011;9698;51.976;7.570;2023-05-14T09:30:46;3.30;;;3.00;;
19131;SDS011;9698;51.976;7.570;2023-05-14T09:33:25;3.67;;;3.37;;
19131;SDS011;9698;51.976;7.570;2023-05-14T09:35:54;3.37;;;2.60;;
19131;SDS011;9698;51.976;7.570;2023-05-14T09:38:27;4.43;;;2.90;;
19131;SDS011;9698;51.976;7.570;2023-05-14T09:40:56;3.20;;;2.40;;
19131;SDS011;9698;51.976;7.570;2023-05-14T09:43:24;3.30;;;2.50;;
19131;SDS011;9698;51.976;7.570;2023-05-14T09:45:52;2.70;;;2.50;;
19131;SDS011;9698;51.976;7.570;2023-05-14T09:48:19;3.63;;;2.30;;
19131;SDS011;9698;51.976;7.570;2023-05-14T09:50:48;3.83;;;2.80;;
19131;SDS011;9698;51.976;7.570;2023-05-14T09:53:17;3.33;;;2.70;;
19131;SDS011;9698;51.976;7.570;2023-05-14T09:55:45;3.63;;;2.87;;
19131;SDS011;9698;51.976;7.570;2023-05-14T09:58:14;4.00;;;2.77;;
19131;SDS011;9698;51.976;7.570;2023-05-14T10:00:43;3.03;;;2.83;;
19131;SDS011;9698;51.976;7.570;2023-05-14T10:03:12;2.93;;;2.63;;
19131;SDS011;9698;51.976;7.570;2023-05-14T10:05:44;4.03;;;3.10;;
19131;SDS011;9698;51.976;7.570;2023-05-14T10:08:36;2.87;;;2.67;;
19131;SDS011;9698;51.976;7.570;2023-05-14T10:11:09;3.23;;;2.90;;
19131;SDS011;9698;51.976;7.570;2023-05-14T10:13:41;3.23;;;2.93;;
19131;SDS011;9698;51.976;7.570;2023-05-14T10:16:15;2.77;;;2.57;;
19131;SDS011;9698;51.976;7.570;2023-05-14T10:18:45;3.50;;;3.20;;
19131;SDS011;9698;51.976;7.570;2023-05-14T10:21:18;3.30;;;3.00;;
19131;SDS011;9698;51.976;7.570;2023-05-14T10:23:47;3.97;;;3.13;;
19131;SDS011;9698;51.976;7.570;2023-05-14T10:26:16;2.90;;;2.70;;
19131;SDS011;9698;51.976;7.570;2023-05-14T10:28:49;3.53;;;3.23;;
19131;SDS011;9698;51.976;7.570;2023-05-14T10:31:17;3.00;;;2.70;;
19131;SDS011;9698;51.976;7.570;2023-05-14T10:33:49;3.27;;;2.90;;
19131;SDS011;9698;51.976;7.570;2023-05-14T10:36:17;3.20;;;2.90;;
19131;SDS011;9698;51.976;7.570;2023-05-14T10:38:47;3.57;;;3.23;;
19131;SDS011;9698;51.976;7.570;2023-05-14T10:41:22;3.03;;;2.83;;
19131;SDS011;9698;51.976;7.570;2023-05-14T10:43:50;3.80;;;3.20;;
19131;SDS011;9698;51.976;7.570;2023-05-14T10:46:18;3.50;;;3.20;;
19131;SDS011;9698;51.976;7.570;2023-05-14T10:48:46;3.40;;;3.10;;
19131;SDS011;9698;51.976;7.570;2023-05-14T10:51:15;3.37;;;3.07;;
19131;SDS011;9698;51.976;7.570;2023-05-14T10:53:45;3.80;;;3.50;;
19131;SDS011;9698;51.976;7.570;2023-05-14T10:56:14;4.83;;;3.17;;
19131;SDS011;9698;51.976;7.570;2023-05-14T10:58:43;4.87;;;3.40;;
19131;SDS011;9698;51.976;7.570;2023-05-14T11:01:11;3.80;;;3.40;;
19131;SDS011;9698;51.976;7.570;2023-05-14T11:03:40;3.87;;;2.97;;
19131;SDS011;9698;51.976;7.570;2023-05-14T11:06:09;2.93;;;2.63;;
19131;SDS011;9698;51.976;7.570;2023-05-14T11:08:39;3.13;;;2.90;;
19131;SDS011;9698;51.976;7.570;2023-05-14T11:11:08;3.27;;;2.83;;
19131;SDS011;9698;51.976;7.570;2023-05-14T11:13:36;2.90;;;2.70;;
19131;SDS011;9698;51.976;7.570;2023-05-14T11:16:05;3.03;;;2.70;;
19131;SDS011;9698;51.976;7.570;2023-05-14T11:18:52;3.43;;;3.13;;
19131;SDS011;9698;51.976;7.570;2023-05-14T11:21:27;3.03;;;2.73;;
19131;SDS011;9698;51.976;7.570;2023-05-14T11:23:55;3.00;;;2.80;;
19131;SDS011;9698;51.976;7.570;2023-05-14T11:26:23;2.70;;;2.50;;
19131;SDS011;9698;51.976;7.570;2023-05-14T11:28:51;3.00;;;2.73;;
19131;SDS011;9698;51.976;7.570;2023-05-14T11:31:20;3.33;;;3.00;;
19131;SDS011;9698;51.976;7.570;2023-05-14T11:33:49;3.93;;;3.63;;
19131;SDS011;9698;51.976;7.570;2023-05-14T11:36:19;2.90;;;2.70;;
19131;SDS011;9698;51.976;7.570;2023-05-14T11:38:47;3.83;;;3.07;;
19131;SDS011;9698;51.976;7.570;2023-05-14T11:41:17;2.97;;;2.70;;
19131;SDS011;9698;51.976;7.570;2023-05-14T11:43:46;3.57;;;3.27;;
19131;SDS011;9698;51.976;7.570;2023-05-14T11:46:18;2.87;;;2.67;;
19131;SDS011;9698;51.976;7.570;2023-05-14T11:48:47;3.63;;;3.33;;
19131;SDS011;9698;51.976;7.570;2023-05-14T11:51:15;2.90;;;2.70;;
19131;SDS011;9698;51.976;7.570;2023-05-14T11:53:43;3.20;;;2.90;;
19131;SDS011;9698;51.976;7.570;2023-05-14T11:56:12;3.53;;;2.50;;
19131;SDS011;9698;51.976;7.570;2023-05-14T11:58:40;3.60;;;3.30;;
19131;SDS011;9698;51.976;7.570;2023-05-14T12:01:14;3.37;;;3.07;;
19131;SDS011;9698;51.976;7.570;2023-05-14T12:03:42;3.67;;;3.37;;
19131;SDS011;9698;51.976;7.570;2023-05-14T12:06:10;3.37;;;3.07;;
19131;SDS011;9698;51.976;7.570;2023-05-14T12:08:38;3.67;;;3.37;;
19131;SDS011;9698;51.976;7.570;2023-05-14T12:11:07;3.53;;;2.60;;
19131;SDS011;9698;51.976;7.570;2023-05-14T12:13:35;3.50;;;3.13;;
19131;SDS011;9698;51.976;7.570;2023-05-14T12:16:03;3.20;;;2.90;;
19131;SDS011;9698;51.976;7.570;2023-05-14T12:18:32;3.00;;;2.70;;
19131;SDS011;9698;51.976;7.570;2023-05-14T12:21:04;3.43;;;2.87;;
19131;SDS011;9698;51.976;7.570;2023-05-14T12:23:33;3.70;;;2.93;;
19131;SDS011;9698;51.976;7.570;2023-05-14T12:26:01;4.40;;;2.80;;
19131;SDS011;9698;51.976;7.570;2023-05-14T12:28:31;4.20;;;2.93;;
19131;SDS011;9698;51.976;7.570;2023-05-14T12:31:03;3.30;;;2.97;;
19131;SDS011;9698;51.976;7.570;2023-05-14T12:33:31;3.27;;;2.67;;
19131;SDS011;9698;51.976;7.570;2023-05-14T12:35:59;3.50;;;2.80;;
19131;SDS011;9698;51.976;7.570;2023-05-14T12:38:47;3.10;;;2.80;;
19131;SDS011;9698;51.976;7.570;2023-05-14T12:41:15;3.17;;;2.83;;
19131;SDS011;9698;51.976;7.570;2023-05-14T12:43:43;3.83;;;3.00;;
19131;SDS011;9698;51.976;7.570;2023-05-14T12:46:13;3.07;;;2.77;;
19131;SDS011;9698;51.976;7.570;2023-05-14T12:48:41;3.00;;;2.80;;
19131;SDS011;9698;51.976;7.570;2023-05-14T12:51:09;4.30;;;2.80;;
19131;SDS011;9698;51.976;7.570;2023-05-14T12:53:37;3.17;;;2.80;;
19131;SDS011;9698;51.976;7.570;2023-05-14T12:56:05;2.73;;;2.50;;
19131;SDS011;9698;51.976;7.570;2023-05-14T12:58:34;3.90;;;2.47;;
19131;SDS011;9698;51.976;7.570;2023-05-14T13:01:02;3.37;;;2.50;;
19131;SDS011;9698;51.976;7.570;2023-05-14T13:03:30;4.17;;;3.00;;
19131;SDS011;9698;51.976;7.570;2023-05-14T13:05:58;3.90;;;3.33;;
19131;SDS011;9698;51.976;7.570;2023-05-14T13:08:26;3.10;;;2.80;;
19131;SDS011;9698;51.976;7.570;2023-05-14T13:10:55;3.20;;;2.90;;
19131;SDS011;9698;51.976;7.570;2023-05-14T13:13:23;3.53;;;2.63;;
19131;SDS011;9698;51.976;7.570;2023-05-14T13:15:52;3.73;;;3.30;;
19131;SDS011;9698;51.976;7.570;2023-05-14T13:18:20;4.30;;;3.00;;
19131;SDS011;9698;51.976;7.570;2023-05-14T13:20:48;3.10;;;2.80;;
19131;SDS011;9698;51.976;7.570;2023-05-14T13:23:16;2.87;;;2.53;;
19131;SDS011;9698;51.976;7.570;2023-05-14T13:25:44;3.33;;;3.03;;
19131;SDS011;9698;51.976;7.570;2023-05-14T13:28:15;3.17;;;2.87;;
19131;SDS011;9698;51.976;7.570;2023-05-14T13:30:44;3.80;;;2.53;;
19131;SDS011;9698;51.976;7.570;2023-05-14T13:33:31;6.97;;;3.13;;
19131;SDS011;9698;51.976;7.570;2023-05-14T13:35:59;5.03;;;3.03;;
19131;SDS011;9698;51.976;7.570;2023-05-14T13:38:27;3.57;;;2.70;;
19131;SDS011;9698;51.976;7.570;2023-05-14T13:40:55;3.50;;;2.57;;
19131;SDS011;9698;51.976;7.570;2023-05-14T13:43:27;3.00;;;2.70;;
19131;SDS011;9698;51.976;7.570;2023-05-14T13:45:56;2.83;;;2.63;;
19131;SDS011;9698;51.976;7.570;2023-05-14T13:48:24;3.43;;;2.80;;
19131;SDS011;9698;51.976;7.570;2023-05-14T13:50:52;3.20;;;2.90;;
19131;SDS011;9698;51.976;7.570;2023-05-14T13:53:21;2.60;;;2.40;;
19131;SDS011;9698;51.976;7.570;2023-05-14T13:55:49;3.20;;;3.00;;
19131;SDS011;9698;51.976;7.570;2023-05-14T13:58:21;2.93;;;2.67;;
19131;SDS011;9698;51.976;7.570;2023-05-14T14:00:49;3.53;;;3.07;;
19131;SDS011;9698;51.976;7.570;2023-05-14T14:03:17;3.87;;;3.27;;
19131;SDS011;9698;51.976;7.570;2023-05-14T14:05:45;3.77;;;3.37;;
19131;SDS011;9698;51.976;7.570;2023-05-14T14:08:13;2.80;;;2.57;;
19131;SDS011;9698;51.976;7.570;2023-05-14T14:10:50;4.33;;;3.33;;
19131;SDS011;9698;51.976;7.570;2023-05-14T14:13:20;2.97;;;2.67;;
19131;SDS011;9698;51.976;7.570;2023-05-14T14:15:48;3.40;;;3.07;;
19131;SDS011;9698;51.976;7.570;2023-05-14T14:18:16;3.10;;;2.80;;
19131;SDS011;9698;51.976;7.570;2023-05-14T14:20:44;3.33;;;3.03;;
19131;SDS011;9698;51.976;7.570;2023-05-14T14:23:12;2.70;;;2.50;;
19131;SDS011;9698;51.976;7.570;2023-05-14T14:25:39;3.07;;;2.77;;
19131;SDS011;9698;51.976;7.570;2023-05-14T14:28:07;2.97;;;2.70;;
19131;SDS011;9698;51.976;7.570;2023-05-14T14:30:35;2.97;;;2.73;;
19131;SDS011;9698;51.976;7.570;2023-05-14T14:33:03;3.90;;;3.00;;
19131;SDS011;9698;51.976;7.570;2023-05-14T14:35:31;3.23;;;2.90;;
19131;SDS011;9698;51.976;7.570;2023-05-14T14:38:00;3.33;;;3.03;;
19131;SDS011;9698;51.976;7.570;2023-05-14T14:40:28;3.80;;;2.70;;
19131;SDS011;9698;51.976;7.570;2023-05-14T14:42:58;2.87;;;2.60;;
19131;SDS011;9698;51.976;7.570;2023-05-14T14:45:27;3.10;;;2.80;;
19131;SDS011;9698;51.976;7.570;2023-05-14T14:50:48;3.07;;;2.87;;
19131;SDS011;9698;51.976;7.570;2023-05-14T14:53:17;4.23;;;2.97;;
19131;SDS011;9698;51.976;7.570;2023-05-14T14:55:45;2.70;;;2.47;;
19131;SDS011;9698;51.976;7.570;2023-05-14T14:58:13;3.17;;;2.87;;
19131;SDS011;9698;51.976;7.570;2023-05-14T15:00:41;4.97;;;4.47;;
19131;SDS011;9698;51.976;7.570;2023-05-14T15:03:10;3.77;;;2.57;;
19131;SDS011;9698;51.976;7.570;2023-05-14T15:05:40;3.00;;;2.70;;
19131;SDS011;9698;51.976;7.570;2023-05-14T15:08:07;2.73;;;2.53;;
19131;SDS011;9698;51.976;7.570;2023-05-14T15:10:36;3.13;;;2.83;;
19131;SDS011;9698;51.976;7.570;2023-05-14T15:13:04;3.80;;;3.40;;
19131;SDS011;9698;51.976;7.570;2023-05-14T15:15:33;3.20;;;2.90;;